Time;durP1;ratioP1;P1;durP2;ratioP2;P2;SDS_P1;SDS_P2;PMS_P1;PMS_P2;Temp;Humidity;BMP_temperature;BMP_pressure;BME280_temperature;BME280_humidity;BME280_pressure;Samples;Min_cycle;Max_cycle;Signal;HPM_P1;HPM_P2
2022/09/29 00:01:01;;;;;;;;;;;;;;;-142.75;100.00;76428.56;4996291;28;19918;-69
2022/09/29 00:03:26;;;;;;;;;;;;;;;-142.75;100.00;76432.50;4996355;28;19914;-69
2022/09/29 00:05:53;;;;;;;;;;;;;;;-142.75;100.00;76452.19;4996167;28;19936;-70
2022/09/29 00:08:19;;;;;;;;;;;;;;;-142.75;100.00;76464.00;4995969;28;19997;-70
2022/09/29 00:10:44;;;;;;;;;;;;;;;-142.75;100.00;76464.00;4996158;28;19974;-69
2022/09/29 00:13:09;;;;;;;;;;;;;;;-142.75;100.00;76464.00;4996143;28;19918;-69
2022/09/29 00:15:34;;;;;;;;;;;;;;;-142.75;100.00;76458.09;4996092;28;19964;-69
2022/09/29 00:18:00;;;;;;;;;;;;;;;-142.75;100.00;76452.19;4994508;28;19964;-69
2022/09/29 00:20:25;;;;;;;;;;;;;;;-142.75;100.00;76452.19;4994589;28;20296;-69
2022/09/29 00:22:50;;;;;;;;;;;;;;;-142.75;100.00;76444.31;4992508;28;19925;-68
2022/09/29 00:25:16;;;;;;;;;;;;;;;-142.75;100.00;76442.34;4994706;28;20303;-69
2022/09/29 00:27:41;;;;;;;;;;;;;;;-142.75;100.00;76462.03;4995380;28;19921;-70
2022/09/29 00:30:06;;;;;;;;;;;;;;;-142.75;100.00;76465.97;4995648;28;19918;-69
2022/09/29 00:32:32;;;;;;;;;;;;;;;-142.75;100.00;76458.09;4995489;28;19921;-70
2022/09/29 00:34:57;;;;;;;;;;;;;;;-142.75;100.00;76456.13;4995603;28;19914;-69
2022/09/29 00:37:22;;;;;;;;;;;;;;;-142.75;100.00;76464.00;4992926;28;19924;-69
2022/09/29 00:39:47;;;;;;;;;;;;;;;-142.75;100.00;76483.69;4995636;28;19914;-69
2022/09/29 00:42:16;;;;;;;;;;;;;;;-142.75;100.00;76479.75;4995519;28;19918;-69
2022/09/29 00:44:53;;;;;;;;;;;;;;;-142.75;100.00;76456.13;4994886;28;20016;-69
2022/09/29 00:47:19;;;;;;;;;;;;;;;-142.75;100.00;76452.19;4994797;28;20396;-69
2022/09/29 00:49:47;;;;;;;;;;;;;;;-142.75;100.00;76475.81;4995256;28;19933;-69
2022/09/29 00:52:12;;;;;;;;;;;;;;;-142.75;100.00;76467.94;4995427;28;19914;-69
2022/09/29 00:54:40;;;;;;;;;;;;;;;-142.75;100.00;76469.91;4995275;28;19914;-69
2022/09/29 00:57:07;;;;;;;;;;;;;;;-142.75;100.00;76464.00;4995068;28;20288;-69
2022/09/29 00:59:51;;;;;;;;;;;;;;;-142.75;100.00;76471.88;4995292;28;19913;-69
2022/09/29 01:02:17;;;;;;;;;;;;;;;-142.75;100.00;76473.84;4995417;28;20344;-69
2022/09/29 01:04:43;;;;;;;;;;;;;;;-142.75;100.00;76469.91;4995087;28;20016;-69
2022/09/29 01:07:09;;;;;;;;;;;;;;;-142.75;100.00;76462.03;4994863;28;20004;-70
2022/09/29 01:09:36;;;;;;;;;;;;;;;-142.75;100.00;76465.97;4995063;28;20375;-70
2022/09/29 01:12:02;;;;;;;;;;;;;;;-142.75;100.00;76458.09;4995092;28;20004;-69
2022/09/29 01:14:29;;;;;;;;;;;;;;;-142.75;100.00;76464.00;4994892;28;19957;-69
2022/09/29 01:16:54;;;;;;;;;;;;;;;-142.75;100.00;76460.06;4994656;28;19918;-69
2022/09/29 01:19:29;;;;;;;;;;;;;;;-142.75;100.00;76469.91;4993668;28;20307;-69
2022/09/29 01:21:57;;;;;;;;;;;;;;;-142.75;100.00;76483.69;4994922;28;20387;-69
2022/09/29 01:24:31;;;;;;;;;;;;;;;-142.75;100.00;76479.75;4994773;28;19921;-69
2022/09/29 01:27:05;;;;;;;;;;;;;;;-142.75;100.00;76471.88;4993242;28;20363;-69
2022/09/29 01:29:50;;;;;;;;;;;;;;;-142.75;100.00;76467.94;4993445;28;19921;-69
2022/09/29 01:32:26;;;;;;;;;;;;;;;-142.75;100.00;76471.88;5001140;28;19929;-69
2022/09/29 01:34:54;;;;;;;;;;;;;;;-142.75;100.00;76489.59;5014267;28;20387;-69
2022/09/29 01:37:19;;;;;;;;;;;;;;;-142.75;100.00;76475.81;5012554;28;20298;-69
2022/09/29 01:40:01;;;;;;;;;;;;;;;-142.75;100.00;76471.88;5013962;28;19917;-69
2022/09/29 01:42:35;;;;;;;;;;;;;;;-142.75;100.00;76479.75;5013957;28;19917;-70
2022/09/29 01:45:11;;;;;;;;;;;;;;;-142.75;100.00;76479.75;5051496;22;20308;-68
2022/09/29 01:47:39;;;;;;;;;;;;;;;-142.75;100.00;76485.66;5031806;28;20403;-68
2022/09/29 01:50:16;;;;;;;;;;;;;;;-142.75;100.00;76483.69;5033700;28;19913;-68
2022/09/29 01:52:43;;;;;;;;;;;;;;;-142.75;100.00;76493.53;5032406;28;20065;-68
2022/09/29 01:55:11;;;;;;;;;;;;;;;-142.75;100.00;76495.50;5033549;28;20318;-68
2022/09/29 01:57:42;;;;;;;;;;;;;;;-142.75;100.00;76487.63;5033226;28;19917;-68
2022/09/29 02:00:15;;;;;;;;;;;;;;;-142.75;100.00;76491.56;5033468;28;19920;-68
2022/09/29 02:02:52;;;;;;;;;;;;;;;-142.75;100.00;76521.09;5033403;28;19933;-69
2022/09/29 02:05:24;;;;;;;;;;;;;;;-142.75;100.00;76509.28;5033454;28;19920;-68
2022/09/29 02:07:50;;;;;;;;;;;;;;;-142.75;100.00;76503.38;5033012;28;19917;-68
2022/09/29 02:10:23;;;;;;;;;;;;;;;-142.75;100.00;76507.31;5033317;28;19936;-68
2022/09/29 02:12:49;;;;;;;;;;;;;;;-142.75;100.00;76511.25;5033402;28;19916;-68
2022/09/29 02:15:19;;;;;;;;;;;;;;;-142.75;100.00;76528.97;5033139;28;19914;-69
2022/09/29 02:17:47;;;;;;;;;;;;;;;-142.75;100.00;76548.63;5032825;28;19924;-68
2022/09/29 02:20:13;;;;;;;;;;;;;;;-142.75;100.00;76540.75;5033088;28;19921;-68
2022/09/29 02:22:38;;;;;;;;;;;;;;;-142.75;100.00;76552.56;5033026;28;20031;-68
2022/09/29 02:25:04;;;;;;;;;;;;;;;-142.75;100.00;76574.22;5032873;28;19951;-69
2022/09/29 02:27:32;;;;;;;;;;;;;;;-142.75;100.00;76562.41;5032688;28;19913;-68
2022/09/29 02:29:58;;;;;;;;;;;;;;;-142.75;100.00;76566.34;5032983;28;19948;-68
2022/09/29 02:32:23;;;;;;;;;;;;;;;-142.75;100.00;76558.47;5031661;28;19917;-68
2022/09/29 02:34:49;;;;;;;;;;;;;;;-142.75;100.00;76580.13;5032820;28;20283;-68
2022/09/29 02:37:33;;;;;;;;;;;;;;;-142.75;100.00;76582.09;5032440;28;19913;-68
2022/09/29 02:40:17;;;;;;;;;;;;;;;-142.75;100.00;76574.22;5032687;28;19913;-68
2022/09/29 02:42:48;;;;;;;;;;;;;;;-142.75;100.00;76578.16;5032774;28;20375;-68
2022/09/29 02:45:29;;;;;;;;;;;;;;;-142.75;100.00;76578.16;5032496;28;19917;-68
2022/09/29 02:47:54;;;;;;;;;;;;;;;-142.75;100.00;76582.09;5032312;28;20008;-68
2022/09/29 02:50:22;;;;;;;;;;;;;;;-142.75;100.00;76588.00;5032544;28;19983;-68
2022/09/29 02:52:53;;;;;;;;;;;;;;;-142.75;100.00;76605.72;5032508;28;19914;-68
2022/09/29 02:55:34;;;;;;;;;;;;;;;-142.75;100.00;76621.47;5032485;28;19913;-68
2022/09/29 02:58:09;;;;;;;;;;;;;;;-142.75;100.00;76633.28;5032229;28;19913;-68
2022/09/29 03:00:35;;;;;;;;;;;;;;;-142.75;100.00;76641.16;5031939;28;19928;-68
2022/09/29 03:03:00;;;;;;;;;;;;;;;-142.75;100.00;76649.03;5032434;28;19913;-68
2022/09/29 03:05:25;;;;;;;;;;;;;;;-142.75;100.00;76652.97;5032215;28;20000;-68
2022/09/29 03:07:51;;;;;;;;;;;;;;;-142.75;100.00;76654.94;5032066;28;19944;-68
2022/09/29 03:10:17;;;;;;;;;;;;;;;-142.75;100.00;76639.19;5032272;28;19917;-68
2022/09/29 03:12:42;;;;;;;;;;;;;;;-142.75;100.00;76629.34;5032327;28;20313;-69
2022/09/29 03:15:08;;;;;;;;;;;;;;;-142.75;100.00;76625.41;5032096;28;19913;-68
2022/09/29 03:17:33;;;;;;;;;;;;;;;-142.75;100.00;76617.53;5031589;28;19919;-68
2022/09/29 03:19:59;;;;;;;;;;;;;;;-142.75;100.00;76625.41;5032124;28;20011;-68
2022/09/29 03:22:24;;;;;;;;;;;;;;;-142.75;100.00;76631.31;5030950;28;19913;-68
2022/09/29 03:24:49;;;;;;;;;;;;;;;-142.75;100.00;76629.34;5032128;28;19913;-68
2022/09/29 03:27:15;;;;;;;;;;;;;;;-142.75;100.00;76621.47;5031878;28;19913;-68
2022/09/29 03:29:40;;;;;;;;;;;;;;;-142.75;100.00;76619.50;5032038;28;19920;-68
2022/09/29 03:32:06;;;;;;;;;;;;;;;-142.75;100.00;76625.41;5032162;28;19963;-68
2022/09/29 03:34:32;;;;;;;;;;;;;;;-142.75;100.00;76625.41;5031994;28;19920;-68
2022/09/29 03:36:57;;;;;;;;;;;;;;;-142.75;100.00;76629.34;5031919;28;20405;-68
2022/09/29 03:39:22;;;;;;;;;;;;;;;-142.75;100.00;76633.28;5028911;28;20087;-69
2022/09/29 03:41:48;;;;;;;;;;;;;;;-142.75;100.00;76652.97;5029688;28;20075;-68
2022/09/29 03:44:13;;;;;;;;;;;;;;;-142.75;100.00;76676.59;5031501;28;20094;-68
2022/09/29 03:46:38;;;;;;;;;;;;;;;-142.75;100.00;76708.09;5031383;28;20013;-69
2022/09/29 03:49:03;;;;;;;;;;;;;;;-142.75;100.00;76733.69;5031650;28;19917;-68
2022/09/29 03:51:29;;;;;;;;;;;;;;;-142.75;100.00;76729.75;5031678;28;19913;-68
2022/09/29 03:53:54;;;;;;;;;;;;;;;-142.75;100.00;76723.84;5029913;28;19917;-68
2022/09/29 03:56:19;;;;;;;;;;;;;;;-142.75;100.00;76712.03;5030599;28;20399;-69
2022/09/29 03:58:44;;;;;;;;;;;;;;;-142.75;100.00;76680.53;5031465;28;20410;-69
2022/09/29 04:01:09;;;;;;;;;;;;;;;-142.75;100.00;76668.72;5029892;28;19923;-68
2022/09/29 04:03:35;;;;;;;;;;;;;;;-142.75;100.00;76688.41;5029946;28;19967;-68
2022/09/29 04:06:00;;;;;;;;;;;;;;;-142.75;100.00;76717.94;5030980;28;20371;-69
2022/09/29 04:08:25;;;;;;;;;;;;;;;-142.75;100.00;76712.03;5031441;28;19924;-68
2022/09/29 04:10:50;;;;;;;;;;;;;;;-142.75;100.00;76692.34;5031732;28;20375;-68
2022/09/29 04:13:16;;;;;;;;;;;;;;;-142.75;100.00;76674.63;5034397;28;19924;-69
2022/09/29 04:15:41;;;;;;;;;;;;;;;-142.75;100.00;76654.94;5034007;28;19924;-68
2022/09/29 04:18:06;;;;;;;;;;;;;;;-142.75;100.00;76664.78;5035128;28;19913;-68
2022/09/29 04:20:31;;;;;;;;;;;;;;;-142.75;100.00;76668.72;5035284;28;20274;-69
2022/09/29 04:22:57;;;;;;;;;;;;;;;-142.75;100.00;76672.66;5035367;28;20043;-68
2022/09/29 04:25:22;;;;;;;;;;;;;;;-142.75;100.00;76678.56;5033732;28;20014;-68
2022/09/29 04:27:47;;;;;;;;;;;;;;;-142.75;100.00;76684.47;5034887;28;19913;-68
2022/09/29 04:30:12;;;;;;;;;;;;;;;-142.75;100.00;76682.50;5035110;28;19917;-68
2022/09/29 04:32:38;;;;;;;;;;;;;;;-142.75;100.00;76682.50;5035115;28;19919;-69
2022/09/29 04:35:03;;;;;;;;;;;;;;;-142.75;100.00;76680.53;5035038;28;20391;-69
2022/09/29 04:37:30;;;;;;;;;;;;;;;-142.75;100.00;76686.44;5034690;28;19913;-69
2022/09/29 04:39:55;;;;;;;;;;;;;;;-142.75;100.00;76712.03;5033752;28;19945;-68
2022/09/29 04:42:20;;;;;;;;;;;;;;;-142.75;100.00;76694.31;5034788;28;19967;-68
2022/09/29 04:44:45;;;;;;;;;;;;;;;-142.75;100.00;76723.84;5034730;28;19983;-68
2022/09/29 04:47:11;;;;;;;;;;;;;;;-142.75;100.00;76743.53;5034612;28;19913;-68
2022/09/29 04:49:36;;;;;;;;;;;;;;;-142.75;100.00;76751.41;5034755;28;20287;-68
2022/09/29 04:52:02;;;;;;;;;;;;;;;-142.75;100.00;76767.16;5033548;28;20302;-68
2022/09/29 04:54:34;;;;;;;;;;;;;;;-142.75;100.00;76767.16;5033495;28;19921;-69
2022/09/29 04:57:00;;;;;;;;;;;;;;;-142.75;100.00;76804.53;5034379;28;19913;-68
2022/09/29 04:59:26;;;;;;;;;;;;;;;-142.75;100.00;76794.69;5034700;28;20394;-68
2022/09/29 05:01:51;;;;;;;;;;;;;;;-142.75;100.00;76792.75;5034553;28;19918;-68
2022/09/29 05:04:16;;;;;;;;;;;;;;;-142.75;100.00;76792.75;5034405;28;19924;-68
2022/09/29 05:06:41;;;;;;;;;;;;;;;-142.75;100.00;76794.69;5032984;28;19920;-68
2022/09/29 05:09:07;;;;;;;;;;;;;;;-142.75;100.00;76790.78;5034449;28;19913;-68
2022/09/29 05:11:32;;;;;;;;;;;;;;;-142.75;100.00;76804.53;5034331;28;19913;-68
2022/09/29 05:13:57;;;;;;;;;;;;;;;-142.75;100.00;76802.56;5034271;28;20382;-68
2022/09/29 05:16:23;;;;;;;;;;;;;;;-142.75;100.00;76804.53;5034304;28;20308;-69
2022/09/29 05:18:49;;;;;;;;;;;;;;;-142.75;100.00;76792.75;5032802;28;19913;-68
2022/09/29 05:21:14;;;;;;;;;;;;;;;-142.75;100.00;76771.09;5034205;28;20374;-68
2022/09/29 05:23:41;;;;;;;;;;;;;;;-142.75;100.00;76751.41;5033771;28;19956;-68
2022/09/29 05:26:07;;;;;;;;;;;;;;;-142.75;100.00;76755.34;5034154;28;20588;-69
2022/09/29 05:28:33;;;;;;;;;;;;;;;-142.75;100.00;76733.69;5033882;28;19996;-69
2022/09/29 05:31:02;;;;;;;;;;;;;;;-142.75;100.00;76725.81;5032803;28;19913;-68
2022/09/29 05:33:27;;;;;;;;;;;;;;;-142.75;100.00;76717.94;5032668;28;20004;-68
2022/09/29 05:35:52;;;;;;;;;;;;;;;-142.75;100.00;76723.84;5034008;28;19948;-68
2022/09/29 05:38:18;;;;;;;;;;;;;;;-142.75;100.00;76721.88;5033707;28;19920;-68
2022/09/29 05:40:43;;;;;;;;;;;;;;;-142.75;100.00;76719.91;5033711;28;20004;-69
2022/09/29 05:43:08;;;;;;;;;;;;;;;-142.75;100.00;76712.03;5033417;28;20355;-68
2022/09/29 05:45:33;;;;;;;;;;;;;;;-142.75;100.00;76712.03;5033698;28;19913;-68
2022/09/29 05:47:59;;;;;;;;;;;;;;;-142.75;100.00;76706.13;5033417;28;19913;-68
2022/09/29 05:50:24;;;;;;;;;;;;;;;-142.75;100.00;76715.97;5033342;28;19925;-68
2022/09/29 05:52:51;;;;;;;;;;;;;;;-142.75;100.00;76712.03;5032347;28;19913;-68
2022/09/29 05:55:16;;;;;;;;;;;;;;;-142.75;100.00;76704.16;5033534;28;19944;-68
2022/09/29 05:57:46;;;;;;;;;;;;;;;-142.75;100.00;76706.13;5033207;28;19917;-68
2022/09/29 06:00:11;;;;;;;;;;;;;;;-142.75;100.00;76700.22;5032169;28;20395;-68
2022/09/29 06:02:36;;;;;;;;;;;;;;;-142.75;100.00;76698.25;5033131;28;20012;-68
2022/09/29 06:05:01;;;;;;;;;;;;;;;-142.75;100.00;76688.41;5033152;28;19920;-69
2022/09/29 06:07:26;;;;;;;;;;;;;;;-142.75;100.00;76684.47;5033093;28;19920;-67
2022/09/29 06:09:52;;;;;;;;;;;;;;;-142.75;100.00;76692.34;5033304;28;19913;-67
2022/09/29 06:12:17;;;;;;;;;;;;;;;-142.75;100.00;76712.03;5032856;28;20015;-68
2022/09/29 06:14:42;;;;;;;;;;;;;;;-142.75;100.00;76712.03;5032851;28;20391;-68
2022/09/29 06:17:07;;;;;;;;;;;;;;;-142.75;100.00;76692.34;5032828;28;20363;-68
2022/09/29 06:19:32;;;;;;;;;;;;;;;-142.75;100.00;76686.44;5033111;28;19933;-69
2022/09/29 06:21:58;;;;;;;;;;;;;;;-142.75;100.00;76676.59;5033000;28;19917;-68
2022/09/29 06:24:23;;;;;;;;;;;;;;;-142.75;100.00;76684.47;5033026;28;19913;-69
2022/09/29 06:26:48;;;;;;;;;;;;;;;-142.75;100.00;76731.72;5032592;28;20014;-69
2022/09/29 06:29:14;;;;;;;;;;;;;;;-142.75;100.00;76747.47;5029857;28;19917;-68
2022/09/29 06:31:39;;;;;;;;;;;;;;;-142.75;100.00;76775.03;5024357;28;19972;-68
2022/09/29 06:34:05;;;;;;;;;;;;;;;-142.75;100.00;76798.66;5032043;28;20374;-68
2022/09/29 06:39:15;;;;;;;;;;;;;;;-142.75;100.00;76806.50;5032311;28;19968;-68
2022/09/29 06:41:40;;;;;;;;;;;;;;;-142.75;100.00;76818.31;5032401;28;19964;-69
2022/09/29 06:44:06;;;;;;;;;;;;;;;-142.75;100.00;76828.16;5030695;28;19983;-68
2022/09/29 06:46:31;;;;;;;;;;;;;;;-142.75;100.00;76790.78;5023989;28;20379;-69
2022/09/29 06:48:56;;;;;;;;;;;;;;;-142.75;100.00;76763.22;5027064;28;19925;-68
2022/09/29 06:51:22;;;;;;;;;;;;;;;-142.75;100.00;76737.63;5013094;28;19921;-68
2022/09/29 06:53:48;;;;;;;;;;;;;;;-142.75;100.00;76767.16;5018141;28;20316;-68
2022/09/29 06:56:13;;;;;;;;;;;;;;;-142.75;100.00;76773.06;5026009;28;20681;-68
2022/09/29 06:58:39;;;;;;;;;;;;;;;-142.75;100.00;76759.28;5030452;28;19917;-68
2022/09/29 07:01:04;;;;;;;;;;;;;;;-142.75;100.00;76765.19;5031862;28;20008;-69
2022/09/29 07:03:30;;;;;;;;;;;;;;;-142.75;100.00;76737.63;5030750;28;19967;-68
2022/09/29 07:05:55;;;;;;;;;;;;;;;-142.75;100.00;76715.97;5031849;28;19918;-69
2022/09/29 07:08:21;;;;;;;;;;;;;;;-142.75;100.00;76702.19;5031490;28;19920;-69
2022/09/29 07:10:47;;;;;;;;;;;;;;;-142.75;100.00;76666.75;5030671;28;20317;-69
2022/09/29 07:13:12;;;;;;;;;;;;;;;-142.75;100.00;76593.91;5030560;28;19940;-68
2022/09/29 07:15:37;;;;;;;;;;;;;;;-142.75;100.00;76532.88;5031810;28;19917;-69
2022/09/29 07:18:03;;;;;;;;;;;;;;;-142.75;100.00;76471.88;5030106;28;19936;-69
2022/09/29 07:20:29;;;;;;;;;;;;;;;-142.75;100.00;76460.06;5030272;28;19917;-69
2022/09/29 07:22:54;;;;;;;;;;;;;;;-142.75;100.00;76434.47;5031219;28;19920;-69
2022/09/29 07:25:20;;;;;;;;;;;;;;;-142.75;100.00;76406.91;5032195;28;19913;-70
2022/09/29 07:27:45;;;;;;;;;;;;;;;-142.75;100.00;76393.13;5031935;28;19913;-69
2022/09/29 07:30:11;;;;;;;;;;;;;;;-142.75;100.00;76341.97;5032094;28;20294;-69
2022/09/29 07:32:36;;;;;;;;;;;;;;;-142.75;100.00;76316.38;5032096;28;19924;-67
2022/09/29 07:35:02;;;;;;;;;;;;;;;-142.75;100.00;76265.19;5032313;28;20367;-68
2022/09/29 07:37:27;;;;;;;;;;;;;;;-142.75;100.00;76215.97;5031391;28;19916;-66
2022/09/29 07:39:53;;;;;;;;;;;;;;;-142.75;100.00;76200.25;5032266;28;20106;-68
2022/09/29 07:42:18;;;;;;;;;;;;;;;-142.75;100.00;76196.31;5032169;28;20347;-69
2022/09/29 07:44:43;;;;;;;;;;;;;;;-142.75;100.00;76149.06;5043596;22;20028;-68
2022/09/29 07:47:08;;;;;;;;;;;;;;;-142.75;100.00;76121.50;5014887;28;19922;-71
2022/09/29 07:49:34;;;;;;;;;;;;;;;-142.75;100.00;76076.22;5014772;28;20379;-71
2022/09/29 07:51:59;;;;;;;;;;;;;;;-142.75;100.00;76066.41;4997815;28;20479;-68
2022/09/29 07:54:24;;;;;;;;;;;;;;;-142.75;100.00;76070.34;5015253;28;19914;-68
2022/09/29 07:56:50;;;;;;;;;;;;;;;-142.75;100.00;76030.97;4998051;28;19963;-69
2022/09/29 07:59:15;;;;;;;;;;;;;;;-142.75;100.00;76072.31;5015926;28;19914;-69
2022/09/29 08:01:40;;;;;;;;;;;;;;;-142.75;100.00;76052.63;5015970;28;19917;-68
2022/09/29 08:04:05;;;;;;;;;;;;;;;-142.75;100.00;76015.22;4998205;28;19913;-69
2022/09/29 08:06:32;;;;;;;;;;;;;;;-142.75;100.00;76007.34;5015755;28;19948;-69
2022/09/29 08:08:58;;;;;;;;;;;;;;;-142.75;100.00;75985.69;4997950;28;19914;-69
2022/09/29 08:11:23;;;;;;;;;;;;;;;-142.75;100.00;75969.94;5015789;28;19918;-69
2022/09/29 08:13:52;;;;;;;;;;;;;;;-142.75;100.00;75960.13;5015338;28;19920;-69
2022/09/29 08:16:17;;;;;;;;;;;;;;;-142.75;100.00;75914.84;5015120;28;20000;-69
2022/09/29 08:18:42;;;;;;;;;;;;;;;-142.75;100.00;75877.44;5014868;28;20466;-69
2022/09/29 08:21:09;;;;;;;;;;;;;;;-142.75;100.00;75826.28;5015118;28;20399;-70
2022/09/29 08:23:38;;;;;;;;;;;;;;;-142.75;100.00;75849.91;5015028;28;19913;-69
2022/09/29 08:26:04;;;;;;;;;;;;;;;-142.75;100.00;75847.94;5014872;28;19917;-69
2022/09/29 08:28:32;;;;;;;;;;;;;;;-142.75;100.00;75857.78;5014108;28;20418;-70
2022/09/29 08:31:02;;;;;;;;;;;;;;;-142.75;100.00;75806.59;4997438;28;19913;-70
2022/09/29 08:33:27;;;;;;;;;;;;;;;-142.75;100.00;75806.59;4997320;28;19913;-70
2022/09/29 08:35:59;;;;;;;;;;;;;;;-142.75;100.00;75812.50;5015168;28;19967;-68
2022/09/29 08:38:25;;;;;;;;;;;;;;;-142.75;100.00;75782.97;5015257;28;19913;-67
2022/09/29 08:40:50;;;;;;;;;;;;;;;-142.75;100.00;75771.16;5015110;28;19918;-66
2022/09/29 08:43:19;;;;;;;;;;;;;;;-142.75;100.00;75731.81;5015170;28;19920;-66
2022/09/29 08:46:20;;;;;;;;;;;;;;;-142.75;100.00;75698.34;5014928;28;20418;-67
2022/09/29 08:48:46;;;;;;;;;;;;;;;-142.75;100.00;75765.25;4934951;29;19914;-66
2022/09/29 08:51:20;;;;;;;;;;;;;;;-142.75;100.00;75765.25;4998470;28;20279;-67
2022/09/29 08:53:47;;;;;;;;;;;;;;;-142.75;100.00;75686.53;4997505;28;19913;-66
2022/09/29 08:56:14;;;;;;;;;;;;;;;-142.75;100.00;75682.59;5014910;28;19980;-67
2022/09/29 08:58:40;;;;;;;;;;;;;;;-142.75;100.00;75649.16;5013920;28;19913;-67
2022/09/29 09:01:14;;;;;;;;;;;;;;;-142.75;100.00;75625.53;5014808;28;19972;-67
2022/09/29 09:03:52;;;;;;;;;;;;;;;-142.75;100.00;75641.28;5014781;28;19917;-67
2022/09/29 09:06:35;;;;;;;;;;;;;;;-142.75;100.00;75603.88;5014651;28;19920;-66
2022/09/29 09:09:06;;;;;;;;;;;;;;;-142.75;100.00;75625.53;5014779;28;20390;-67
2022/09/29 09:11:43;;;;;;;;;;;;;;;-142.75;100.00;75607.81;5014720;28;19913;-67
2022/09/29 09:14:08;;;;;;;;;;;;;;;-142.75;100.00;75609.78;5014562;28;20012;-66
2022/09/29 09:16:54;;;;;;;;;;;;;;;-142.75;100.00;75611.75;5014383;28;20391;-64
2022/09/29 09:19:32;;;;;;;;;;;;;;;-142.75;100.00;75617.66;4996259;28;19940;-67
2022/09/29 09:22:04;;;;;;;;;;;;;;;-142.75;100.00;75645.22;5014472;28;19918;-67
2022/09/29 09:24:44;;;;;;;;;;;;;;;-142.75;100.00;75582.25;5014320;28;19924;-67
2022/09/29 09:27:12;;;;;;;;;;;;;;;-142.75;100.00;75613.72;5014108;28;20352;-67
2022/09/29 09:29:41;;;;;;;;;;;;;;;-142.75;100.00;75601.91;5014289;28;19920;-67
2022/09/29 09:32:08;;;;;;;;;;;;;;;-142.75;100.00;75515.31;5014278;28;19914;-67
2022/09/29 09:34:42;;;;;;;;;;;;;;;-142.75;100.00;75483.84;5014042;28;19960;-66
2022/09/29 09:37:24;;;;;;;;;;;;;;;-142.75;100.00;75448.41;4996362;28;20040;-67
2022/09/29 09:39:49;;;;;;;;;;;;;;;-142.75;100.00;75436.59;5014170;28;19914;-67
2022/09/29 09:42:17;;;;;;;;;;;;;;;-142.75;100.00;75513.38;4996406;28;20051;-67
2022/09/29 09:44:47;;;;;;;;;;;;;;;-142.75;100.00;75477.94;5013858;28;20394;-66
2022/09/29 09:47:27;;;;;;;;;;;;;;;-142.75;100.00;75436.59;5013714;28;20003;-67
2022/09/29 09:50:13;;;;;;;;;;;;;;;-142.75;100.00;75515.31;5013994;28;19917;-66
2022/09/29 09:52:40;;;;;;;;;;;;;;;-142.75;100.00;75479.91;4995713;28;19913;-67
2022/09/29 09:55:09;;;;;;;;;;;;;;;-142.75;100.00;75521.22;5013851;28;19921;-66
2022/09/29 09:57:41;;;;;;;;;;;;;;;-142.75;100.00;75531.06;5013417;28;19936;-66
2022/09/29 10:00:08;;;;;;;;;;;;;;;-142.75;100.00;75444.47;5013802;28;20024;-66
2022/09/29 10:02:33;;;;;;;;;;;;;;;-142.75;100.00;75448.41;4996003;28;20391;-66
2022/09/29 10:04:59;;;;;;;;;;;;;;;-142.75;100.00;75428.75;5013566;28;19914;-67
2022/09/29 10:07:28;;;;;;;;;;;;;;;-142.75;100.00;75355.94;5013384;28;19914;-66
2022/09/29 10:09:54;;;;;;;;;;;;;;;-142.75;100.00;75318.53;5012551;28;19920;-66
2022/09/29 10:12:20;;;;;;;;;;;;;;;-142.75;100.00;75320.50;5013439;28;19925;-66
2022/09/29 10:14:53;;;;;;;;;;;;;;;-142.75;99.45;75304.75;5008516;28;19918;-66
2022/09/29 10:17:20;;;;;;;;;;;;;;;-142.75;100.00;75291.00;5011335;28;19917;-65
2022/09/29 10:19:53;;;;;;;;;;;;;;;-142.75;100.00;75334.28;5013288;28;19913;-65
2022/09/29 10:22:19;;;;;;;;;;;;;;;-142.75;95.49;75294.94;5013178;28;20000;-66
2022/09/29 10:24:44;;;;;;;;;;;;;;;-142.75;97.11;75348.06;5012903;28;20406;-67
2022/09/29 10:27:10;;;;;;;;;;;;;;;-142.75;99.52;75287.06;5012826;28;19917;-66
2022/09/29 10:29:40;;;;;;;;;;;;;;;-142.75;94.65;75269.34;5013200;28;19913;-66
2022/09/29 10:32:08;;;;;;;;;;;;;;;-142.75;98.49;75330.34;5013257;28;19914;-66
2022/09/29 10:34:35;;;;;;;;;;;;;;;-142.75;97.86;75269.34;5011553;28;20020;-66
2022/09/29 10:37:02;;;;;;;;;;;;;;;-142.75;90.71;75170.94;4993328;28;20355;-65
2022/09/29 10:39:42;;;;;;;;;;;;;;;-142.75;85.80;75170.94;5011960;28;19967;-66
2022/09/29 10:42:33;;;;;;;;;;;;;;;-142.75;86.23;75184.72;5012948;28;20387;-66
2022/09/29 10:45:14;;;;;;;;;;;;;;;-142.75;91.52;75367.72;5009709;28;19933;-66
2022/09/29 10:47:40;;;;;;;;;;;;;;;-142.75;100.00;75474.00;5012608;28;19960;-66
2022/09/29 10:50:13;;;;;;;;;;;;;;;-142.75;100.00;75448.41;5012960;28;20383;-66
2022/09/29 10:52:44;;;;;;;;;;;;;;;-142.75;100.00;75353.97;5012883;28;20334;-66
2022/09/29 10:55:15;;;;;;;;;;;;;;;-142.75;97.69;75318.53;5012659;28;19965;-66
2022/09/29 10:57:41;;;;;;;;;;;;;;;-142.75;90.88;75247.69;5012521;28;19961;-66
2022/09/29 11:00:06;;;;;;;;;;;;;;;-142.75;85.56;75210.31;5012696;28;19913;-66
2022/09/29 11:02:36;;;;;;;;;;;;;;;-142.75;83.28;75141.44;5012663;28;19973;-67
2022/09/29 11:05:03;;;;;;;;;;;;;;;-142.75;79.96;75190.63;5012695;28;19967;-66
2022/09/29 11:07:30;;;;;;;;;;;;;;;-142.75;77.88;75127.66;4994718;28;19953;-66
2022/09/29 11:09:55;;;;;;;;;;;;;;;-142.75;75.89;75125.69;5012625;28;20413;-66
2022/09/29 11:12:30;;;;;;;;;;;;;;;-142.75;75.13;75086.34;5012649;28;19914;-66
2022/09/29 11:14:56;;;;;;;;;;;;;;;-142.75;74.39;75157.19;5012477;28;19921;-66
2022/09/29 11:17:26;;;;;;;;;;;;;;;-142.75;77.46;75184.72;5012166;28;19915;-66
2022/09/29 11:19:52;;;;;;;;;;;;;;;-142.75;73.41;75147.34;5012500;28;19914;-66
2022/09/29 11:22:20;;;;;;;;;;;;;;;-142.75;73.86;75113.88;5012089;28;19917;-67
2022/09/29 11:24:54;;;;;;;;;;;;;;;-142.75;74.72;75145.38;5012289;28;19913;-66
2022/09/29 11:27:38;;;;;;;;;;;;;;;-142.75;69.98;75139.47;5012101;28;19921;-66
2022/09/29 11:30:16;;;;;;;;;;;;;;;-142.75;71.16;75224.09;5012394;28;20407;-67
2022/09/29 11:33:03;;;;;;;;;;;;;;;-142.75;72.79;75151.28;4994724;28;19976;-66
2022/09/29 11:35:41;;;;;;;;;;;;;;;-142.75;71.04;75121.75;4994900;28;20342;-66
2022/09/29 11:38:19;;;;;;;;;;;;;;;-142.75;74.19;75210.31;5012094;28;19921;-67
2022/09/29 11:40:47;;;;;;;;;;;;;;;-142.75;72.42;75188.66;5012245;28;20414;-66
2022/09/29 11:43:31;;;;;;;;;;;;;;;-142.75;72.20;75212.28;5012247;28;19917;-66
2022/09/29 11:46:05;;;;;;;;;;;;;;;-142.75;71.28;75198.50;5012073;28;19918;-66
2022/09/29 11:48:37;;;;;;;;;;;;;;;-142.75;72.34;75247.69;4994434;28;19913;-66
2022/09/29 11:51:22;;;;;;;;;;;;;;;-142.75;71.84;75277.22;5012240;28;20448;-66
2022/09/29 11:54:06;;;;;;;;;;;;;;;-142.75;74.22;75261.47;5012212;28;19914;-66
2022/09/29 11:56:43;;;;;;;;;;;;;;;-142.75;73.68;75202.44;5012308;28;20352;-67
2022/09/29 11:59:14;;;;;;;;;;;;;;;-142.75;69.79;75176.84;5012184;28;19914;-66
2022/09/29 12:01:46;;;;;;;;;;;;;;;-142.75;70.21;75129.63;4994433;28;19921;-66
2022/09/29 12:04:35;;;;;;;;;;;;;;;-142.75;68.02;75267.38;5012068;28;19921;-66
2022/09/29 12:07:00;;;;;;;;;;;;;;;-142.75;71.87;75176.84;5011799;28;19913;-67
2022/09/29 12:09:25;;;;;;;;;;;;;;;-142.75;70.80;75133.56;5012012;28;19921;-66
2022/09/29 12:12:00;;;;;;;;;;;;;;;-142.75;71.92;75170.94;5012007;28;20035;-66
2022/09/29 12:14:44;;;;;;;;;;;;;;;-142.75;73.68;75316.56;5012023;28;20372;-66
2022/09/29 12:17:17;;;;;;;;;;;;;;;-142.75;71.32;75383.47;5011689;28;20000;-66
2022/09/29 12:19:43;;;;;;;;;;;;;;;-142.75;75.24;75393.31;4994384;28;20020;-65
2022/09/29 12:22:12;;;;;;;;;;;;;;;-142.75;81.14;75470.06;5011898;28;19971;-66
2022/09/29 12:24:37;;;;;;;;;;;;;;;-142.75;78.34;75513.38;5011849;28;19960;-66
2022/09/29 12:27:05;;;;;;;;;;;;;;;-142.75;79.23;75529.09;5011648;28;19960;-66